Sandy Lake Airport
CZSJ : now visible

Airfield :











YOU CAN JOIN US ON...

 
LOGIN :

Register | Disclaimer

   EN    FR    IT 

 









Legend :    VFR   Marginal VFR   IFR   Intensive IFR   Very Intensive IFR
Visi :
Ceiling :
>= 8 km
>= 3000ft
5 to 8 km
1000 to 3000 ft
1500m to 5 km
500 to 1000 ft
800 to 1500m
200 to 500 ft
< 800m
< 200 ft
Symbols :   Thunderstorms  Fog  Heavy snow  Heavy precipitations  Wind > 20 kt






- Airport Elevation : 951 ft
- IATA code : ZSJ


CZSJ - Sandy Lake

CURRENT METAR :
  • 170300Z AUTO 22008G20KT 180V260 9SM FEW071 19/06 A2931 RMK SLP929 DENSITY ALT 2300FT

EXPIRED METARs :
  • 170200Z AUTO 23014G22KT 170V270 9SM CLR 20/05 A2930 RMK SLP926 DENSITY ALT 2500FT
  • 170100Z AUTO 22013G24KT 190V270 9SM CLR 22/05 A2927 RMK SLP916 DENSITY ALT 2800FT
  • 170000Z AUTO 21009G21KT 150V250 9SM BKN060 24/09 A2926 RMK SLP913 DENSITY ALT 3000FT
  • 162300Z AUTO 19010G20KT 160V240 9SM FEW055 SCT069 SCT110 25/13 A2926 RMK SLP912 DENSITY ALT 3100FT

Expired Forecast.
CZWG FIR / North America



MET'MAP, your aeronautical weather chart ! - Copyright ORBIFLY December 2007 - Disclaimer

ORBIFLY MET'MAP TEAM :

Programming & Development : Alexandra Zaïnal
Original concept : Baudouin d'Aumeries
Technical & hardware support : Manuel Goepfert
Assistance : Marc-Olivier Méhu




SOURCES & CREDITS :

   NOAA       Earth
Advisory